Portada
Imágenes satélite Pronóstico 10 díasClimaPredicción Marítima Ciclones Rayo AeropuertosFAQ Noticias Acerca
El tiempo : Europa África América del Norte América del Sur Asia Australia-Oceanía Otros
Idiomas Contacto

Vitória, Espírito Santo, Brasil

latitud: 20-16S, longitud: 040-17W, altitud: 4 m


METAR: SBVT 030600Z 32002KT 9999 FEW025 17/14 Q1020
TAF: SBVT 030400Z 0306/0406 30005KT 9999 FEW020 TN18/0308Z TX27/0316Z BECMG 0313/0315 06010KT RMK PCH

Hora: 03:31 (06:31 UTC)

Observación

El informe se hizo hace 31 minutos, a las 06:00 UTC
Viento 2 kt del noroeste
Temperatura 17°C
Humedad 82%
Presión 1020 hPa
Visibilidad 10 km o más
Escasas nubes a una altura de 2500 ft

Cambiar las unidades

Pronóstico

El informe se hizo hace 2 horas y 31 minutos, a las 04:00 UTC
Pronóstico válido del 03 a las 06 UTC al 04 a las 06 UTC
Viento 5 kt del oeste-noroeste
Visibilidad 10 km o más
Escasas nubes a una altura de 2000 ft
Evolucionando progresivamente
del 03 a las 13 UTC al 03 a las 15 UTC
Viento 10 kt del este-noreste
La información que se ofrece en estas páginas está sujeta a una cláusula de exención de responsabilidad
El tiempo : Europa África América del Norte América del Sur Asia Australia-Oceanía Otros
Imágenes satélite Pronóstico 10 díasClimaPredicción Marítima Ciclones Rayo AeropuertosFAQ Idiomas Contacto Noticias Acerca